Aviation Digital Data Service (ADDS)

Output produced by METARs form (0230 UTC 22 April 2019)
found at http://www.aviationweather.gov/metar/data/
 
METAR text: KXNA 220153Z 17012KT 10SM CLR 22/09 A2993 RMK AO2 SLP123 T02170089
Conditions at: KXNA (BENTONVILLE (NW), AR, US) observed 0153 UTC 22 April 2019
Temperature: 21.7°C (71°F)
Dewpoint: 8.9°C (48°F) [RH = 44%]
Pressure (altimeter): 29.93 inches Hg (1013.6 mb)
[Sea-level pressure: 1012.3 mb]
Winds: from the S (170 degrees) at 14 MPH (12 knots; 6.2 m/s)
Visibility: 10 or more miles (16+ km)
Ceiling: at least 12,000 feet AGL
Clouds: sky clear below 12,000 feet AGL
Weather: no significant weather observed at this time

METAR text: KXNA 220053Z 16013KT 10SM CLR 22/08 A2990 RMK AO2 PK WND 16026/0029 SLP117 T02220083
Conditions at: KXNA (BENTONVILLE (NW), AR, US) observed 0053 UTC 22 April 2019
Temperature: 22.2°C (72°F)
Dewpoint: 8.3°C (47°F) [RH = 41%]
Pressure (altimeter): 29.90 inches Hg (1012.6 mb)
[Sea-level pressure: 1011.7 mb]
Winds: from the SSE (160 degrees) at 15 MPH (13 knots; 6.7 m/s)
Visibility: 10 or more miles (16+ km)
Ceiling: at least 12,000 feet AGL
Clouds: sky clear below 12,000 feet AGL
Weather: no significant weather observed at this time

METAR text: KXNA 212353Z 17016G23KT 10SM CLR 24/08 A2991 RMK AO2 PK WND 16027/2317 SLP119 T02390078 10267 20239 56008
Conditions at: KXNA (BENTONVILLE (NW), AR, US) observed 2353 UTC 21 April 2019
Temperature: 23.9°C (75°F)
Dewpoint: 7.8°C (46°F) [RH = 36%]
Pressure (altimeter): 29.91 inches Hg (1013.0 mb)
[Sea-level pressure: 1011.9 mb]
Winds: from the S (170 degrees) at 18 MPH (16 knots; 8.2 m/s)
gusting to 26 MPH (23 knots; 11.8 m/s)
Visibility: 10 or more miles (16+ km)
Ceiling: at least 12,000 feet AGL
Clouds: sky clear below 12,000 feet AGL
Weather: no significant weather observed at this time

METAR text: KXNA 212253Z 17019G24KT 10SM CLR 26/09 A2991 RMK AO2 PK WND 17026/2228 SLP118 T02560094
Conditions at: KXNA (BENTONVILLE (NW), AR, US) observed 2253 UTC 21 April 2019
Temperature: 25.6°C (78°F)
Dewpoint: 9.4°C (49°F) [RH = 36%]
Pressure (altimeter): 29.91 inches Hg (1013.0 mb)
[Sea-level pressure: 1011.8 mb]
Winds: from the S (170 degrees) at 22 MPH (19 knots; 9.8 m/s)
gusting to 28 MPH (24 knots; 12.3 m/s)
Visibility: 10 or more miles (16+ km)
Ceiling: at least 12,000 feet AGL
Clouds: sky clear below 12,000 feet AGL
Weather: no significant weather observed at this time

METAR text: KXNA 212153Z 16016KT 10SM FEW043 27/11 A2992 RMK AO2 SLP122 T02670106
Conditions at: KXNA (BENTONVILLE (NW), AR, US) observed 2153 UTC 21 April 2019
Temperature: 26.7°C (80°F)
Dewpoint: 10.6°C (51°F) [RH = 36%]
Pressure (altimeter): 29.92 inches Hg (1013.3 mb)
[Sea-level pressure: 1012.2 mb]
Winds: from the SSE (160 degrees) at 18 MPH (16 knots; 8.2 m/s)
Visibility: 10 or more miles (16+ km)
Ceiling: at least 12,000 feet AGL
Clouds: few clouds at 4300 feet AGL
Weather: no significant weather observed at this time

METAR text: KXNA 212053Z 17015G23KT 10SM CLR 27/11 A2993 RMK AO2 SLP126 T02670106 56016
Conditions at: KXNA (BENTONVILLE (NW), AR, US) observed 2053 UTC 21 April 2019
Temperature: 26.7°C (80°F)
Dewpoint: 10.6°C (51°F) [RH = 36%]
Pressure (altimeter): 29.93 inches Hg (1013.6 mb)
[Sea-level pressure: 1012.6 mb]
Winds: from the S (170 degrees) at 17 MPH (15 knots; 7.7 m/s)
gusting to 26 MPH (23 knots; 11.8 m/s)
Visibility: 10 or more miles (16+ km)
Ceiling: at least 12,000 feet AGL
Clouds: sky clear below 12,000 feet AGL
Weather: no significant weather observed at this time

METAR text: KXNA 211953Z 19016G22KT 10SM CLR 27/09 A2995 RMK AO2 PK WND 18026/1932 SLP132 T02670089
Conditions at: KXNA (BENTONVILLE (NW), AR, US) observed 1953 UTC 21 April 2019
Temperature: 26.7°C (80°F)
Dewpoint: 8.9°C (48°F) [RH = 33%]
Pressure (altimeter): 29.95 inches Hg (1014.3 mb)
[Sea-level pressure: 1013.2 mb]
Winds: from the S (190 degrees) at 18 MPH (16 knots; 8.2 m/s)
gusting to 25 MPH (22 knots; 11.3 m/s)
Visibility: 10 or more miles (16+ km)
Ceiling: at least 12,000 feet AGL
Clouds: sky clear below 12,000 feet AGL
Weather: no significant weather observed at this time

METAR text: KXNA 211853Z 19016KT 10SM CLR 26/08 A2996 RMK AO2 SLP136 T02610083
Conditions at: KXNA (BENTONVILLE (NW), AR, US) observed 1853 UTC 21 April 2019
Temperature: 26.1°C (79°F)
Dewpoint: 8.3°C (47°F) [RH = 32%]
Pressure (altimeter): 29.96 inches Hg (1014.6 mb)
[Sea-level pressure: 1013.6 mb]
Winds: from the S (190 degrees) at 18 MPH (16 knots; 8.2 m/s)
Visibility: 10 or more miles (16+ km)
Ceiling: at least 12,000 feet AGL
Clouds: sky clear below 12,000 feet AGL
Weather: no significant weather observed at this time

METAR text: KXNA 211753Z 17015KT 10SM CLR 25/09 A2998 RMK AO2 SLP143 T02500089 10250 20100 58005
Conditions at: KXNA (BENTONVILLE (NW), AR, US) observed 1753 UTC 21 April 2019
Temperature: 25.0°C (77°F)
Dewpoint: 8.9°C (48°F) [RH = 36%]
Pressure (altimeter): 29.98 inches Hg (1015.3 mb)
[Sea-level pressure: 1014.3 mb]
Winds: from the S (170 degrees) at 17 MPH (15 knots; 7.7 m/s)
Visibility: 10 or more miles (16+ km)
Ceiling: at least 12,000 feet AGL
Clouds: sky clear below 12,000 feet AGL
Weather: no significant weather observed at this time

METAR text: KXNA 211653Z 18013G22KT 10SM CLR 24/09 A3000 RMK AO2 SLP151 T02390094
Conditions at: KXNA (BENTONVILLE (NW), AR, US) observed 1653 UTC 21 April 2019
Temperature: 23.9°C (75°F)
Dewpoint: 9.4°C (49°F) [RH = 40%]
Pressure (altimeter): 30.00 inches Hg (1016.0 mb)
[Sea-level pressure: 1015.1 mb]
Winds: from the S (180 degrees) at 15 MPH (13 knots; 6.7 m/s)
gusting to 25 MPH (22 knots; 11.3 m/s)
Visibility: 10 or more miles (16+ km)
Ceiling: at least 12,000 feet AGL
Clouds: sky clear below 12,000 feet AGL
Weather: no significant weather observed at this time

METAR text: KXNA 211553Z 19014KT 10SM CLR 22/09 A3000 RMK AO2 SLP150 T02220089
Conditions at: KXNA (BENTONVILLE (NW), AR, US) observed 1553 UTC 21 April 2019
Temperature: 22.2°C (72°F)
Dewpoint: 8.9°C (48°F) [RH = 43%]
Pressure (altimeter): 30.00 inches Hg (1016.0 mb)
[Sea-level pressure: 1015.0 mb]
Winds: from the S (190 degrees) at 16 MPH (14 knots; 7.2 m/s)
Visibility: 10 or more miles (16+ km)
Ceiling: at least 12,000 feet AGL
Clouds: sky clear below 12,000 feet AGL
Weather: no significant weather observed at this time

METAR text: KXNA 211453Z 18011KT 10SM CLR 20/09 A3000 RMK AO2 SLP151 T02000089 50012
Conditions at: KXNA (BENTONVILLE (NW), AR, US) observed 1453 UTC 21 April 2019
Temperature: 20.0°C (68°F)
Dewpoint: 8.9°C (48°F) [RH = 49%]
Pressure (altimeter): 30.00 inches Hg (1016.0 mb)
[Sea-level pressure: 1015.1 mb]
Winds: from the S (180 degrees) at 13 MPH (11 knots; 5.7 m/s)
Visibility: 10 or more miles (16+ km)
Ceiling: at least 12,000 feet AGL
Clouds: sky clear below 12,000 feet AGL
Weather: no significant weather observed at this time

METAR text: KXNA 211353Z 19008KT 10SM CLR 17/08 A3000 RMK AO2 SLP151 T01720083
Conditions at: KXNA (BENTONVILLE (NW), AR, US) observed 1353 UTC 21 April 2019
Temperature: 17.2°C (63°F)
Dewpoint: 8.3°C (47°F) [RH = 56%]
Pressure (altimeter): 30.00 inches Hg (1016.0 mb)
[Sea-level pressure: 1015.1 mb]
Winds: from the S (190 degrees) at 9 MPH (8 knots; 4.1 m/s)
Visibility: 10 or more miles (16+ km)
Ceiling: at least 12,000 feet AGL
Clouds: sky clear below 12,000 feet AGL
Weather: no significant weather observed at this time

METAR text: KXNA 211253Z 19006KT 10SM CLR 13/07 A2999 RMK AO2 SLP146 T01330072
Conditions at: KXNA (BENTONVILLE (NW), AR, US) observed 1253 UTC 21 April 2019
Temperature: 13.3°C (56°F)
Dewpoint: 7.2°C (45°F) [RH = 66%]
Pressure (altimeter): 29.99 inches Hg (1015.7 mb)
[Sea-level pressure: 1014.6 mb]
Winds: from the S (190 degrees) at 7 MPH (6 knots; 3.1 m/s)
Visibility: 10 or more miles (16+ km)
Ceiling: at least 12,000 feet AGL
Clouds: sky clear below 12,000 feet AGL
Weather: no significant weather observed at this time

METAR text: KXNA 211153Z 19004KT 10SM CLR 10/06 A2996 RMK AO2 SLP140 T01000056 10122 20100 53007
Conditions at: KXNA (BENTONVILLE (NW), AR, US) observed 1153 UTC 21 April 2019
Temperature: 10.0°C (50°F)
Dewpoint: 5.6°C (42°F) [RH = 74%]
Pressure (altimeter): 29.96 inches Hg (1014.6 mb)
[Sea-level pressure: 1014.0 mb]
Winds: from the S (190 degrees) at 5 MPH (4 knots; 2.1 m/s)
Visibility: 10 or more miles (16+ km)
Ceiling: at least 12,000 feet AGL
Clouds: sky clear below 12,000 feet AGL
Weather: no significant weather observed at this time

METAR text: KXNA 211053Z 20005KT 10SM CLR 11/05 A2995 RMK AO2 SLP133 T01060050
Conditions at: KXNA (BENTONVILLE (NW), AR, US) observed 1053 UTC 21 April 2019
Temperature: 10.6°C (51°F)
Dewpoint: 5.0°C (41°F) [RH = 68%]
Pressure (altimeter): 29.95 inches Hg (1014.3 mb)
[Sea-level pressure: 1013.3 mb]
Winds: from the SSW (200 degrees) at 6 MPH (5 knots; 2.6 m/s)
Visibility: 10 or more miles (16+ km)
Ceiling: at least 12,000 feet AGL
Clouds: sky clear below 12,000 feet AGL
Weather: no significant weather observed at this time

METAR text: KXNA 210953Z AUTO 17003KT 10SM CLR 10/04 A2994 RMK AO2 SLP131 T01000044
Conditions at: KXNA (BENTONVILLE (NW), AR, US) observed 0953 UTC 21 April 2019
Temperature: 10.0°C (50°F)
Dewpoint: 4.4°C (40°F) [RH = 68%]
Pressure (altimeter): 29.94 inches Hg (1014.0 mb)
[Sea-level pressure: 1013.1 mb]
Winds: from the S (170 degrees) at 3 MPH (3 knots; 1.5 m/s)
Visibility: 10 or more miles (16+ km)
Ceiling: at least 12,000 feet AGL
Clouds: sky clear below 12,000 feet AGL
Weather: automated observation with no human augmentation;
there may or may not be significant weather present at this time

METAR text: KXNA 210853Z AUTO 19004KT 10SM CLR 11/04 A2994 RMK AO2 SLP131 T01110039 58001
Conditions at: KXNA (BENTONVILLE (NW), AR, US) observed 0853 UTC 21 April 2019
Temperature: 11.1°C (52°F)
Dewpoint: 3.9°C (39°F) [RH = 61%]
Pressure (altimeter): 29.94 inches Hg (1014.0 mb)
[Sea-level pressure: 1013.1 mb]
Winds: from the S (190 degrees) at 5 MPH (4 knots; 2.1 m/s)
Visibility: 10 or more miles (16+ km)
Ceiling: at least 12,000 feet AGL
Clouds: sky clear below 12,000 feet AGL
Weather: automated observation with no human augmentation;
there may or may not be significant weather present at this time

METAR text: KXNA 210753Z AUTO 20004KT 10SM CLR 12/04 A2994 RMK AO2 SLP132 T01170039
Conditions at: KXNA (BENTONVILLE (NW), AR, US) observed 0753 UTC 21 April 2019
Temperature: 11.7°C (53°F)
Dewpoint: 3.9°C (39°F) [RH = 59%]
Pressure (altimeter): 29.94 inches Hg (1014.0 mb)
[Sea-level pressure: 1013.2 mb]
Winds: from the SSW (200 degrees) at 5 MPH (4 knots; 2.1 m/s)
Visibility: 10 or more miles (16+ km)
Ceiling: at least 12,000 feet AGL
Clouds: sky clear below 12,000 feet AGL
Weather: automated observation with no human augmentation;
there may or may not be significant weather present at this time

METAR text: KXNA 210653Z AUTO 19004KT 10SM CLR 12/04 A2995 RMK AO2 SLP134 T01170039
Conditions at: KXNA (BENTONVILLE (NW), AR, US) observed 0653 UTC 21 April 2019
Temperature: 11.7°C (53°F)
Dewpoint: 3.9°C (39°F) [RH = 59%]
Pressure (altimeter): 29.95 inches Hg (1014.3 mb)
[Sea-level pressure: 1013.4 mb]
Winds: from the S (190 degrees) at 5 MPH (4 knots; 2.1 m/s)
Visibility: 10 or more miles (16+ km)
Ceiling: at least 12,000 feet AGL
Clouds: sky clear below 12,000 feet AGL
Weather: automated observation with no human augmentation;
there may or may not be significant weather present at this time

METAR text: KXNA 210553Z AUTO 19004KT 10SM CLR 13/04 A2995 RMK AO2 SLP134 T01280039 10206 20122 402220017 53003
Conditions at: KXNA (BENTONVILLE (NW), AR, US) observed 0553 UTC 21 April 2019
Temperature: 12.8°C (55°F)
Dewpoint: 3.9°C (39°F) [RH = 55%]
Pressure (altimeter): 29.95 inches Hg (1014.3 mb)
[Sea-level pressure: 1013.4 mb]
Winds: from the S (190 degrees) at 5 MPH (4 knots; 2.1 m/s)
Visibility: 10 or more miles (16+ km)
Ceiling: at least 12,000 feet AGL
Clouds: sky clear below 12,000 feet AGL
Weather: automated observation with no human augmentation;
there may or may not be significant weather present at this time

METAR text: KXNA 210453Z AUTO 17005KT 10SM CLR 13/04 A2994 RMK AO2 SLP132 T01280039
Conditions at: KXNA (BENTONVILLE (NW), AR, US) observed 0453 UTC 21 April 2019
Temperature: 12.8°C (55°F)
Dewpoint: 3.9°C (39°F) [RH = 55%]
Pressure (altimeter): 29.94 inches Hg (1014.0 mb)
[Sea-level pressure: 1013.2 mb]
Winds: from the S (170 degrees) at 6 MPH (5 knots; 2.6 m/s)
Visibility: 10 or more miles (16+ km)
Ceiling: at least 12,000 feet AGL
Clouds: sky clear below 12,000 feet AGL
Weather: automated observation with no human augmentation;
there may or may not be significant weather present at this time

METAR text: KXNA 210353Z AUTO 19005KT 10SM CLR 14/04 A2994 RMK AO2 SLP131 T01390044
Conditions at: KXNA (BENTONVILLE (NW), AR, US) observed 0353 UTC 21 April 2019
Temperature: 13.9°C (57°F)
Dewpoint: 4.4°C (40°F) [RH = 53%]
Pressure (altimeter): 29.94 inches Hg (1014.0 mb)
[Sea-level pressure: 1013.1 mb]
Winds: from the S (190 degrees) at 6 MPH (5 knots; 2.6 m/s)
Visibility: 10 or more miles (16+ km)
Ceiling: at least 12,000 feet AGL
Clouds: sky clear below 12,000 feet AGL
Weather: automated observation with no human augmentation;
there may or may not be significant weather present at this time

METAR text: KXNA 210253Z 19004KT 10SM CLR 14/04 A2994 RMK AO2 SLP132 T01440039 53005
Conditions at: KXNA (BENTONVILLE (NW), AR, US) observed 0253 UTC 21 April 2019
Temperature: 14.4°C (58°F)
Dewpoint: 3.9°C (39°F) [RH = 49%]
Pressure (altimeter): 29.94 inches Hg (1014.0 mb)
[Sea-level pressure: 1013.2 mb]
Winds: from the S (190 degrees) at 5 MPH (4 knots; 2.1 m/s)
Visibility: 10 or more miles (16+ km)
Ceiling: at least 12,000 feet AGL
Clouds: sky clear below 12,000 feet AGL
Weather: no significant weather observed at this time

METAR text: KXNA 210153Z 20004KT 10SM CLR 17/03 A2993 RMK AO2 SLP128 T01670033
Conditions at: KXNA (BENTONVILLE (NW), AR, US) observed 0153 UTC 21 April 2019
Temperature: 16.7°C (62°F)
Dewpoint: 3.3°C (38°F) [RH = 41%]
Pressure (altimeter): 29.93 inches Hg (1013.6 mb)
[Sea-level pressure: 1012.8 mb]
Winds: from the SSW (200 degrees) at 5 MPH (4 knots; 2.1 m/s)
Visibility: 10 or more miles (16+ km)
Ceiling: at least 12,000 feet AGL
Clouds: sky clear below 12,000 feet AGL
Weather: no significant weather observed at this time

METAR text: KXNA 210053Z 19004KT 10SM CLR 19/04 A2991 RMK AO2 SLP126 T01890039
Conditions at: KXNA (BENTONVILLE (NW), AR, US) observed 0053 UTC 21 April 2019
Temperature: 18.9°C (66°F)
Dewpoint: 3.9°C (39°F) [RH = 37%]
Pressure (altimeter): 29.91 inches Hg (1013.0 mb)
[Sea-level pressure: 1012.6 mb]
Winds: from the S (190 degrees) at 5 MPH (4 knots; 2.1 m/s)
Visibility: 10 or more miles (16+ km)
Ceiling: at least 12,000 feet AGL
Clouds: sky clear below 12,000 feet AGL
Weather: no significant weather observed at this time

METAR text: KXNA 202353Z 19007KT 10SM CLR 21/03 A2992 RMK AO2 SLP129 T02060033 10222 20183 56014
Conditions at: KXNA (BENTONVILLE (NW), AR, US) observed 2353 UTC 20 April 2019
Temperature: 20.6°C (69°F)
Dewpoint: 3.3°C (38°F) [RH = 32%]
Pressure (altimeter): 29.92 inches Hg (1013.3 mb)
[Sea-level pressure: 1012.9 mb]
Winds: from the S (190 degrees) at 8 MPH (7 knots; 3.6 m/s)
Visibility: 10 or more miles (16+ km)
Ceiling: at least 12,000 feet AGL
Clouds: sky clear below 12,000 feet AGL
Weather: no significant weather observed at this time

METAR text: KXNA 202253Z 18006KT 10SM CLR 22/03 A2993 RMK AO2 SLP131 T02170028
Conditions at: KXNA (BENTONVILLE (NW), AR, US) observed 2253 UTC 20 April 2019
Temperature: 21.7°C (71°F)
Dewpoint: 2.8°C (37°F) [RH = 29%]
Pressure (altimeter): 29.93 inches Hg (1013.6 mb)
[Sea-level pressure: 1013.1 mb]
Winds: from the S (180 degrees) at 7 MPH (6 knots; 3.1 m/s)
Visibility: 10 or more miles (16+ km)
Ceiling: at least 12,000 feet AGL
Clouds: sky clear below 12,000 feet AGL
Weather: no significant weather observed at this time

METAR text: KXNA 202153Z 27005KT 10SM CLR 22/02 A2994 RMK AO2 SLP134 T02170022
Conditions at: KXNA (BENTONVILLE (NW), AR, US) observed 2153 UTC 20 April 2019
Temperature: 21.7°C (71°F)
Dewpoint: 2.2°C (36°F) [RH = 28%]
Pressure (altimeter): 29.94 inches Hg (1014.0 mb)
[Sea-level pressure: 1013.4 mb]
Winds: from the W (270 degrees) at 6 MPH (5 knots; 2.6 m/s)
Visibility: 10 or more miles (16+ km)
Ceiling: at least 12,000 feet AGL
Clouds: sky clear below 12,000 feet AGL
Weather: no significant weather observed at this time

METAR text: KXNA 202053Z 26005KT 10SM CLR 21/02 A2996 RMK AO2 SLP140 T02110017 58022
Conditions at: KXNA (BENTONVILLE (NW), AR, US) observed 2053 UTC 20 April 2019
Temperature: 21.1°C (70°F)
Dewpoint: 1.7°C (35°F) [RH = 28%]
Pressure (altimeter): 29.96 inches Hg (1014.6 mb)
[Sea-level pressure: 1014.0 mb]
Winds: from the W (260 degrees) at 6 MPH (5 knots; 2.6 m/s)
Visibility: 10 or more miles (16+ km)
Ceiling: at least 12,000 feet AGL
Clouds: sky clear below 12,000 feet AGL
Weather: no significant weather observed at this time

METAR text: KXNA 201953Z 00000KT 10SM CLR 21/02 A2999 RMK AO2 SLP150 T02060017
Conditions at: KXNA (BENTONVILLE (NW), AR, US) observed 1953 UTC 20 April 2019
Temperature: 20.6°C (69°F)
Dewpoint: 1.7°C (35°F) [RH = 28%]
Pressure (altimeter): 29.99 inches Hg (1015.7 mb)
[Sea-level pressure: 1015.0 mb]
Winds: calm
Visibility: 10 or more miles (16+ km)
Ceiling: at least 12,000 feet AGL
Clouds: sky clear below 12,000 feet AGL
Weather: no significant weather observed at this time

METAR text: KXNA 201853Z 26007KT 10SM CLR 19/M01 A3001 RMK AO2 SLP156 T01941006
Conditions at: KXNA (BENTONVILLE (NW), AR, US) observed 1853 UTC 20 April 2019
Temperature: 19.4°C (67°F)
Dewpoint: -0.6°C (31°F) [RH = 26%]
Pressure (altimeter): 30.01 inches Hg (1016.3 mb)
[Sea-level pressure: 1015.6 mb]
Winds: from the W (260 degrees) at 8 MPH (7 knots; 3.6 m/s)
Visibility: 10 or more miles (16+ km)
Ceiling: at least 12,000 feet AGL
Clouds: sky clear below 12,000 feet AGL
Weather: no significant weather observed at this time

METAR text: KXNA 201753Z 24008KT 10SM CLR 18/02 A3003 RMK AO2 SLP165 T01830017 10183 20017 58006
Conditions at: KXNA (BENTONVILLE (NW), AR, US) observed 1753 UTC 20 April 2019
Temperature: 18.3°C (65°F)
Dewpoint: 1.7°C (35°F) [RH = 33%]
Pressure (altimeter): 30.03 inches Hg (1017.0 mb)
[Sea-level pressure: 1016.5 mb]
Winds: from the WSW (240 degrees) at 9 MPH (8 knots; 4.1 m/s)
Visibility: 10 or more miles (16+ km)
Ceiling: at least 12,000 feet AGL
Clouds: sky clear below 12,000 feet AGL
Weather: no significant weather observed at this time

METAR text: KXNA 201653Z 24006KT 10SM CLR 17/02 A3005 RMK AO2 SLP173 T01720017
Conditions at: KXNA (BENTONVILLE (NW), AR, US) observed 1653 UTC 20 April 2019
Temperature: 17.2°C (63°F)
Dewpoint: 1.7°C (35°F) [RH = 35%]
Pressure (altimeter): 30.05 inches Hg (1017.7 mb)
[Sea-level pressure: 1017.3 mb]
Winds: from the WSW (240 degrees) at 7 MPH (6 knots; 3.1 m/s)
Visibility: 10 or more miles (16+ km)
Ceiling: at least 12,000 feet AGL
Clouds: sky clear below 12,000 feet AGL
Weather: no significant weather observed at this time

METAR text: KXNA 201553Z 26006KT 10SM CLR 16/02 A3006 RMK AO2 SLP176 T01610017
Conditions at: KXNA (BENTONVILLE (NW), AR, US) observed 1553 UTC 20 April 2019
Temperature: 16.1°C (61°F)
Dewpoint: 1.7°C (35°F) [RH = 38%]
Pressure (altimeter): 30.06 inches Hg (1018.0 mb)
[Sea-level pressure: 1017.6 mb]
Winds: from the W (260 degrees) at 7 MPH (6 knots; 3.1 m/s)
Visibility: 10 or more miles (16+ km)
Ceiling: at least 12,000 feet AGL
Clouds: sky clear below 12,000 feet AGL
Weather: no significant weather observed at this time

METAR text: KXNA 201453Z 25005KT 10SM CLR 14/04 A3005 RMK AO2 SLP173 T01390039 51016
Conditions at: KXNA (BENTONVILLE (NW), AR, US) observed 1453 UTC 20 April 2019
Temperature: 13.9°C (57°F)
Dewpoint: 3.9°C (39°F) [RH = 51%]
Pressure (altimeter): 30.05 inches Hg (1017.7 mb)
[Sea-level pressure: 1017.3 mb]
Winds: from the WSW (250 degrees) at 6 MPH (5 knots; 2.6 m/s)
Visibility: 10 or more miles (16+ km)
Ceiling: at least 12,000 feet AGL
Clouds: sky clear below 12,000 feet AGL
Weather: no significant weather observed at this time

Forecast for: KXNA (BENTONVILLE (NW), AR, US)
Text: KXNA 212320Z 2200/2224 16016KT P6SM SKC
Forecast period: 0000 to 1400 UTC 22 April 2019
Forecast type: FROM: standard forecast or significant change
Winds: from the SSE (160 degrees) at 18 MPH (16 knots; 8.2 m/s)
Visibility: 6 or more miles 10+ km)
Clouds: clear skies
Weather: no significant weather forecast for this period
Text: FM221400 20015G25KT P6SM BKN250
Forecast period: 1400 UTC 22 April 2019 to 0000 UTC 23 April 2019
Forecast type: FROM: standard forecast or significant change
Winds: from the SSW (200 degrees) at 17 MPH (15 knots; 7.7 m/s)
gusting to 29 MPH (25 knots; 12.9 m/s)
Visibility: 6 or more miles 10+ km)
Ceiling: 25000 feet AGL
Clouds: broken clouds at 25000 feet AGL
Weather: no significant weather forecast for this period